sensor_id;sensor_type;location;lat;lon;timestamp;P1;durP1;ratioP1;P2;durP2;ratioP2
19861;SDS011;10093;48.148;8.542;2022-07-23T00:00:46;14.65;;;13.20;;
19861;SDS011;10093;48.148;8.542;2022-07-23T00:03:12;15.30;;;13.43;;
19861;SDS011;10093;48.148;8.542;2022-07-23T00:05:38;17.48;;;14.45;;
19861;SDS011;10093;48.148;8.542;2022-07-23T00:08:04;17.90;;;14.48;;
19861;SDS011;10093;48.148;8.542;2022-07-23T00:10:31;16.73;;;15.00;;
19861;SDS011;10093;48.148;8.542;2022-07-23T00:12:56;20.48;;;15.63;;
19861;SDS011;10093;48.148;8.542;2022-07-23T00:15:22;20.27;;;15.77;;
19861;SDS011;10093;48.148;8.542;2022-07-23T00:17:48;24.98;;;16.65;;
19861;SDS011;10093;48.148;8.542;2022-07-23T00:20:13;18.88;;;16.48;;
19861;SDS011;10093;48.148;8.542;2022-07-23T00:22:46;17.00;;;15.25;;
19861;SDS011;10093;48.148;8.542;2022-07-23T00:25:15;19.88;;;15.95;;
19861;SDS011;10093;48.148;8.542;2022-07-23T00:27:41;16.45;;;13.98;;
19861;SDS011;10093;48.148;8.542;2022-07-23T00:30:07;13.95;;;11.50;;
19861;SDS011;10093;48.148;8.542;2022-07-23T00:32:44;14.23;;;12.50;;
19861;SDS011;10093;48.148;8.542;2022-07-23T00:35:19;16.05;;;14.35;;
19861;SDS011;10093;48.148;8.542;2022-07-23T00:37:46;16.50;;;14.65;;
19861;SDS011;10093;48.148;8.542;2022-07-23T00:40:12;15.25;;;13.65;;
19861;SDS011;10093;48.148;8.542;2022-07-23T00:42:38;15.45;;;13.50;;
19861;SDS011;10093;48.148;8.542;2022-07-23T00:45:04;16.40;;;13.60;;
19861;SDS011;10093;48.148;8.542;2022-07-23T00:47:30;17.95;;;13.55;;
19861;SDS011;10093;48.148;8.542;2022-07-23T00:49:56;17.15;;;14.35;;
19861;SDS011;10093;48.148;8.542;2022-07-23T00:52:22;15.48;;;12.65;;
19861;SDS011;10093;48.148;8.542;2022-07-23T00:54:47;14.00;;;11.95;;
19861;SDS011;10093;48.148;8.542;2022-07-23T00:57:13;14.82;;;11.63;;
19861;SDS011;10093;48.148;8.542;2022-07-23T00:59:39;19.17;;;13.32;;
19861;SDS011;10093;48.148;8.542;2022-07-23T01:02:05;15.43;;;13.80;;
19861;SDS011;10093;48.148;8.542;2022-07-23T01:04:31;17.30;;;14.43;;
19861;SDS011;10093;48.148;8.542;2022-07-23T01:06:57;15.00;;;12.82;;
19861;SDS011;10093;48.148;8.542;2022-07-23T01:09:22;19.05;;;15.80;;
19861;SDS011;10093;48.148;8.542;2022-07-23T01:11:48;19.73;;;16.08;;
19861;SDS011;10093;48.148;8.542;2022-07-23T01:14:17;19.48;;;17.23;;
19861;SDS011;10093;48.148;8.542;2022-07-23T01:16:44;21.50;;;15.20;;
19861;SDS011;10093;48.148;8.542;2022-07-23T01:19:12;18.77;;;15.00;;
19861;SDS011;10093;48.148;8.542;2022-07-23T01:21:40;18.77;;;16.13;;
19861;SDS011;10093;48.148;8.542;2022-07-23T01:24:07;20.30;;;16.02;;
19861;SDS011;10093;48.148;8.542;2022-07-23T01:26:34;20.02;;;17.92;;
19861;SDS011;10093;48.148;8.542;2022-07-23T01:29:01;19.02;;;16.48;;
19861;SDS011;10093;48.148;8.542;2022-07-23T01:31:28;15.48;;;13.95;;
19861;SDS011;10093;48.148;8.542;2022-07-23T01:33:53;20.52;;;14.35;;
19861;SDS011;10093;48.148;8.542;2022-07-23T01:36:19;16.40;;;14.32;;
19861;SDS011;10093;48.148;8.542;2022-07-23T01:38:45;14.93;;;13.43;;
19861;SDS011;10093;48.148;8.542;2022-07-23T01:41:10;16.40;;;14.50;;
19861;SDS011;10093;48.148;8.542;2022-07-23T01:43:36;16.25;;;13.75;;
19861;SDS011;10093;48.148;8.542;2022-07-23T01:46:01;14.82;;;13.15;;
19861;SDS011;10093;48.148;8.542;2022-07-23T01:48:27;15.52;;;10.88;;
19861;SDS011;10093;48.148;8.542;2022-07-23T01:50:53;15.27;;;11.85;;
19861;SDS011;10093;48.148;8.542;2022-07-23T01:53:18;13.30;;;11.90;;
19861;SDS011;10093;48.148;8.542;2022-07-23T01:55:44;15.05;;;12.98;;
19861;SDS011;10093;48.148;8.542;2022-07-23T01:58:10;14.60;;;11.75;;
19861;SDS011;10093;48.148;8.542;2022-07-23T02:00:35;15.40;;;11.95;;
19861;SDS011;10093;48.148;8.542;2022-07-23T02:03:01;15.48;;;13.48;;
19861;SDS011;10093;48.148;8.542;2022-07-23T02:05:27;16.38;;;13.63;;
19861;SDS011;10093;48.148;8.542;2022-07-23T02:07:57;15.02;;;13.40;;
19861;SDS011;10093;48.148;8.542;2022-07-23T02:10:23;15.60;;;12.82;;
19861;SDS011;10093;48.148;8.542;2022-07-23T02:12:49;13.23;;;11.82;;
19861;SDS011;10093;48.148;8.542;2022-07-23T02:15:15;14.40;;;12.35;;
19861;SDS011;10093;48.148;8.542;2022-07-23T02:17:40;14.25;;;12.63;;
19861;SDS011;10093;48.148;8.542;2022-07-23T02:20:06;15.23;;;12.20;;
19861;SDS011;10093;48.148;8.542;2022-07-23T02:22:33;14.77;;;11.95;;
19861;SDS011;10093;48.148;8.542;2022-07-23T02:24:59;16.92;;;12.95;;
19861;SDS011;10093;48.148;8.542;2022-07-23T02:27:24;13.93;;;12.27;;
19861;SDS011;10093;48.148;8.542;2022-07-23T02:29:50;15.23;;;12.38;;
19861;SDS011;10093;48.148;8.542;2022-07-23T02:32:16;16.35;;;14.70;;
19861;SDS011;10093;48.148;8.542;2022-07-23T02:34:41;16.05;;;13.88;;
19861;SDS011;10093;48.148;8.542;2022-07-23T02:37:07;14.02;;;12.00;;
19861;SDS011;10093;48.148;8.542;2022-07-23T02:39:33;13.57;;;11.48;;
19861;SDS011;10093;48.148;8.542;2022-07-23T02:41:59;13.70;;;12.30;;
19861;SDS011;10093;48.148;8.542;2022-07-23T02:44:26;15.90;;;13.10;;
19861;SDS011;10093;48.148;8.542;2022-07-23T02:46:51;14.07;;;12.68;;
19861;SDS011;10093;48.148;8.542;2022-07-23T02:49:17;13.45;;;11.07;;
19861;SDS011;10093;48.148;8.542;2022-07-23T02:51:43;14.18;;;11.25;;
19861;SDS011;10093;48.148;8.542;2022-07-23T02:54:08;13.55;;;11.82;;
19861;SDS011;10093;48.148;8.542;2022-07-23T02:56:34;17.15;;;12.55;;
19861;SDS011;10093;48.148;8.542;2022-07-23T02:58:59;14.48;;;12.05;;
19861;SDS011;10093;48.148;8.542;2022-07-23T03:01:25;17.02;;;13.05;;
19861;SDS011;10093;48.148;8.542;2022-07-23T03:03:51;12.98;;;11.68;;
19861;SDS011;10093;48.148;8.542;2022-07-23T03:06:16;14.73;;;11.93;;
19861;SDS011;10093;48.148;8.542;2022-07-23T03:08:42;15.02;;;12.90;;
19861;SDS011;10093;48.148;8.542;2022-07-23T03:11:08;14.95;;;13.00;;
19861;SDS011;10093;48.148;8.542;2022-07-23T03:13:36;14.88;;;12.70;;
19861;SDS011;10093;48.148;8.542;2022-07-23T03:16:02;15.10;;;13.25;;
19861;SDS011;10093;48.148;8.542;2022-07-23T03:18:28;14.18;;;12.73;;
19861;SDS011;10093;48.148;8.542;2022-07-23T03:20:54;15.00;;;13.30;;
19861;SDS011;10093;48.148;8.542;2022-07-23T03:23:20;17.77;;;13.23;;
19861;SDS011;10093;48.148;8.542;2022-07-23T03:25:46;15.25;;;13.32;;
19861;SDS011;10093;48.148;8.542;2022-07-23T03:28:13;17.33;;;13.23;;
19861;SDS011;10093;48.148;8.542;2022-07-23T03:30:40;15.30;;;13.80;;
19861;SDS011;10093;48.148;8.542;2022-07-23T03:33:13;14.35;;;12.95;;
19861;SDS011;10093;48.148;8.542;2022-07-23T03:35:41;14.30;;;12.80;;
19861;SDS011;10093;48.148;8.542;2022-07-23T03:38:07;18.45;;;14.13;;
19861;SDS011;10093;48.148;8.542;2022-07-23T03:40:32;14.85;;;13.25;;
19861;SDS011;10093;48.148;8.542;2022-07-23T03:42:58;16.55;;;13.73;;
19861;SDS011;10093;48.148;8.542;2022-07-23T03:45:24;16.77;;;14.43;;
19861;SDS011;10093;48.148;8.542;2022-07-23T03:47:49;15.43;;;13.40;;
19861;SDS011;10093;48.148;8.542;2022-07-23T03:50:15;14.88;;;13.27;;
19861;SDS011;10093;48.148;8.542;2022-07-23T03:52:40;15.88;;;13.38;;
19861;SDS011;10093;48.148;8.542;2022-07-23T03:55:06;16.13;;;13.00;;
19861;SDS011;10093;48.148;8.542;2022-07-23T03:57:32;16.10;;;14.15;;
19861;SDS011;10093;48.148;8.542;2022-07-23T03:59:58;16.17;;;14.30;;
19861;SDS011;10093;48.148;8.542;2022-07-23T04:02:24;15.85;;;14.15;;
19861;SDS011;10093;48.148;8.542;2022-07-23T04:04:49;16.30;;;14.55;;
19861;SDS011;10093;48.148;8.542;2022-07-23T04:07:15;19.83;;;15.55;;
19861;SDS011;10093;48.148;8.542;2022-07-23T04:09:42;17.63;;;14.43;;
19861;SDS011;10093;48.148;8.542;2022-07-23T04:12:08;18.98;;;14.65;;
19861;SDS011;10093;48.148;8.542;2022-07-23T04:14:34;15.60;;;13.40;;
19861;SDS011;10093;48.148;8.542;2022-07-23T04:17:00;14.93;;;13.32;;
19861;SDS011;10093;48.148;8.542;2022-07-23T04:19:26;17.17;;;15.20;;
19861;SDS011;10093;48.148;8.542;2022-07-23T04:21:52;17.50;;;15.32;;
19861;SDS011;10093;48.148;8.542;2022-07-23T04:24:18;17.02;;;14.45;;
19861;SDS011;10093;48.148;8.542;2022-07-23T04:26:44;16.58;;;14.15;;
19861;SDS011;10093;48.148;8.542;2022-07-23T04:29:10;15.35;;;13.27;;
19861;SDS011;10093;48.148;8.542;2022-07-23T04:31:35;12.35;;;11.20;;
19861;SDS011;10093;48.148;8.542;2022-07-23T04:34:01;19.30;;;14.88;;
19861;SDS011;10093;48.148;8.542;2022-07-23T04:36:27;13.27;;;11.60;;
19861;SDS011;10093;48.148;8.542;2022-07-23T04:38:53;15.63;;;12.63;;
19861;SDS011;10093;48.148;8.542;2022-07-23T04:41:18;16.67;;;12.70;;
19861;SDS011;10093;48.148;8.542;2022-07-23T04:43:44;12.00;;;9.80;;
19861;SDS011;10093;48.148;8.542;2022-07-23T04:46:10;16.70;;;9.65;;
19861;SDS011;10093;48.148;8.542;2022-07-23T04:48:36;14.52;;;9.57;;
19861;SDS011;10093;48.148;8.542;2022-07-23T04:51:01;13.52;;;9.82;;
19861;SDS011;10093;48.148;8.542;2022-07-23T04:53:28;13.15;;;10.52;;
19861;SDS011;10093;48.148;8.542;2022-07-23T04:55:53;10.40;;;9.13;;
19861;SDS011;10093;48.148;8.542;2022-07-23T04:58:19;10.90;;;9.25;;
19861;SDS011;10093;48.148;8.542;2022-07-23T05:00:45;10.18;;;8.93;;
19861;SDS011;10093;48.148;8.542;2022-07-23T05:03:11;13.90;;;9.95;;
19861;SDS011;10093;48.148;8.542;2022-07-23T05:05:37;9.93;;;8.63;;
19861;SDS011;10093;48.148;8.542;2022-07-23T05:08:02;10.70;;;8.98;;
19861;SDS011;10093;48.148;8.542;2022-07-23T05:10:28;12.95;;;8.68;;
19861;SDS011;10093;48.148;8.542;2022-07-23T05:12:54;15.10;;;10.65;;
19861;SDS011;10093;48.148;8.542;2022-07-23T05:15:20;12.40;;;11.15;;
19861;SDS011;10093;48.148;8.542;2022-07-23T05:17:46;10.63;;;9.65;;
19861;SDS011;10093;48.148;8.542;2022-07-23T05:20:11;11.25;;;9.02;;
19861;SDS011;10093;48.148;8.542;2022-07-23T05:22:38;9.77;;;8.63;;
19861;SDS011;10093;48.148;8.542;2022-07-23T05:25:04;8.50;;;7.63;;
19861;SDS011;10093;48.148;8.542;2022-07-23T05:27:30;8.45;;;6.65;;
19861;SDS011;10093;48.148;8.542;2022-07-23T05:29:56;8.13;;;6.43;;
19861;SDS011;10093;48.148;8.542;2022-07-23T05:32:21;7.35;;;6.57;;
19861;SDS011;10093;48.148;8.542;2022-07-23T05:34:47;9.80;;;6.75;;
19861;SDS011;10093;48.148;8.542;2022-07-23T05:37:12;8.68;;;6.47;;
19861;SDS011;10093;48.148;8.542;2022-07-23T05:39:38;6.78;;;5.45;;
19861;SDS011;10093;48.148;8.542;2022-07-23T05:42:04;6.90;;;6.20;;
19861;SDS011;10093;48.148;8.542;2022-07-23T05:44:29;7.03;;;6.07;;
19861;SDS011;10093;48.148;8.542;2022-07-23T05:46:55;8.00;;;6.13;;
19861;SDS011;10093;48.148;8.542;2022-07-23T05:49:21;7.10;;;5.40;;
19861;SDS011;10093;48.148;8.542;2022-07-23T05:51:46;6.57;;;5.82;;
19861;SDS011;10093;48.148;8.542;2022-07-23T05:54:12;6.68;;;5.72;;
19861;SDS011;10093;48.148;8.542;2022-07-23T05:56:37;6.53;;;5.93;;
19861;SDS011;10093;48.148;8.542;2022-07-23T05:59:03;7.63;;;5.30;;
19861;SDS011;10093;48.148;8.542;2022-07-23T06:01:29;6.00;;;5.40;;
19861;SDS011;10093;48.148;8.542;2022-07-23T06:03:54;7.55;;;5.28;;
19861;SDS011;10093;48.148;8.542;2022-07-23T06:06:20;6.80;;;5.28;;
19861;SDS011;10093;48.148;8.542;2022-07-23T06:08:46;6.32;;;5.15;;
19861;SDS011;10093;48.148;8.542;2022-07-23T06:11:11;7.55;;;5.45;;
19861;SDS011;10093;48.148;8.542;2022-07-23T06:13:37;6.82;;;4.95;;
19861;SDS011;10093;48.148;8.542;2022-07-23T06:16:02;6.53;;;5.55;;
19861;SDS011;10093;48.148;8.542;2022-07-23T06:18:28;6.60;;;5.57;;
19861;SDS011;10093;48.148;8.542;2022-07-23T06:20:54;7.43;;;5.40;;
19861;SDS011;10093;48.148;8.542;2022-07-23T06:23:20;6.40;;;5.35;;
19861;SDS011;10093;48.148;8.542;2022-07-23T06:25:45;7.57;;;5.95;;
19861;SDS011;10093;48.148;8.542;2022-07-23T06:28:11;5.80;;;5.30;;
19861;SDS011;10093;48.148;8.542;2022-07-23T06:30:36;10.63;;;5.60;;
19861;SDS011;10093;48.148;8.542;2022-07-23T06:33:02;5.82;;;5.10;;
19861;SDS011;10093;48.148;8.542;2022-07-23T06:35:28;7.70;;;5.43;;
19861;SDS011;10093;48.148;8.542;2022-07-23T06:37:54;11.05;;;5.70;;
19861;SDS011;10093;48.148;8.542;2022-07-23T06:40:19;6.00;;;5.13;;
19861;SDS011;10093;48.148;8.542;2022-07-23T06:42:45;7.25;;;5.40;;
19861;SDS011;10093;48.148;8.542;2022-07-23T06:45:11;6.22;;;5.10;;
19861;SDS011;10093;48.148;8.542;2022-07-23T06:47:37;7.47;;;5.68;;
19861;SDS011;10093;48.148;8.542;2022-07-23T06:50:03;5.80;;;5.22;;
19861;SDS011;10093;48.148;8.542;2022-07-23T06:52:29;7.47;;;4.78;;
19861;SDS011;10093;48.148;8.542;2022-07-23T06:54:55;5.88;;;5.30;;
19861;SDS011;10093;48.148;8.542;2022-07-23T06:57:21;6.38;;;5.35;;
19861;SDS011;10093;48.148;8.542;2022-07-23T06:59:46;7.45;;;5.68;;
19861;SDS011;10093;48.148;8.542;2022-07-23T07:02:12;6.30;;;5.32;;
19861;SDS011;10093;48.148;8.542;2022-07-23T07:04:38;7.60;;;5.28;;
19861;SDS011;10093;48.148;8.542;2022-07-23T07:07:03;6.35;;;5.47;;
19861;SDS011;10093;48.148;8.542;2022-07-23T07:09:29;7.28;;;5.65;;
19861;SDS011;10093;48.148;8.542;2022-07-23T07:11:55;5.90;;;5.05;;
19861;SDS011;10093;48.148;8.542;2022-07-23T07:14:21;5.97;;;5.38;;
19861;SDS011;10093;48.148;8.542;2022-07-23T07:16:48;5.90;;;5.28;;
19861;SDS011;10093;48.148;8.542;2022-07-23T07:19:13;6.07;;;5.47;;
19861;SDS011;10093;48.148;8.542;2022-07-23T07:21:39;6.55;;;5.95;;
19861;SDS011;10093;48.148;8.542;2022-07-23T07:24:05;6.10;;;5.50;;
19861;SDS011;10093;48.148;8.542;2022-07-23T07:26:31;6.15;;;5.60;;
19861;SDS011;10093;48.148;8.542;2022-07-23T07:28:57;7.15;;;5.80;;
19861;SDS011;10093;48.148;8.542;2022-07-23T07:31:23;7.30;;;5.72;;
19861;SDS011;10093;48.148;8.542;2022-07-23T07:33:48;7.68;;;5.22;;
19861;SDS011;10093;48.148;8.542;2022-07-23T07:36:14;6.20;;;5.70;;
19861;SDS011;10093;48.148;8.542;2022-07-23T07:38:40;6.53;;;5.93;;
19861;SDS011;10093;48.148;8.542;2022-07-23T07:41:05;7.38;;;5.70;;
19861;SDS011;10093;48.148;8.542;2022-07-23T07:43:32;7.97;;;5.93;;
19861;SDS011;10093;48.148;8.542;2022-07-23T07:45:58;6.28;;;5.68;;
19861;SDS011;10093;48.148;8.542;2022-07-23T07:48:24;9.13;;;6.10;;
19861;SDS011;10093;48.148;8.542;2022-07-23T07:50:49;7.03;;;6.32;;
19861;SDS011;10093;48.148;8.542;2022-07-23T07:53:16;6.50;;;5.80;;
19861;SDS011;10093;48.148;8.542;2022-07-23T07:55:41;7.28;;;6.47;;
19861;SDS011;10093;48.148;8.542;2022-07-23T07:58:07;8.80;;;6.45;;
19861;SDS011;10093;48.148;8.542;2022-07-23T08:00:32;8.70;;;6.25;;
19861;SDS011;10093;48.148;8.542;2022-07-23T08:02:58;7.85;;;6.60;;
19861;SDS011;10093;48.148;8.542;2022-07-23T08:05:26;7.75;;;6.95;;
19861;SDS011;10093;48.148;8.542;2022-07-23T08:07:53;7.18;;;6.47;;
19861;SDS011;10093;48.148;8.542;2022-07-23T08:10:20;8.65;;;7.75;;
19861;SDS011;10093;48.148;8.542;2022-07-23T08:12:46;8.23;;;6.55;;
19861;SDS011;10093;48.148;8.542;2022-07-23T08:15:16;8.20;;;7.30;;
19861;SDS011;10093;48.148;8.542;2022-07-23T08:17:43;7.63;;;6.80;;
19861;SDS011;10093;48.148;8.542;2022-07-23T08:20:11;7.80;;;7.10;;
19861;SDS011;10093;48.148;8.542;2022-07-23T08:22:44;7.80;;;6.95;;
19861;SDS011;10093;48.148;8.542;2022-07-23T08:25:15;9.60;;;6.95;;
19861;SDS011;10093;48.148;8.542;2022-07-23T08:27:44;9.18;;;7.38;;
19861;SDS011;10093;48.148;8.542;2022-07-23T08:30:10;7.47;;;6.72;;
19861;SDS011;10093;48.148;8.542;2022-07-23T08:32:55;7.00;;;6.30;;
19861;SDS011;10093;48.148;8.542;2022-07-23T08:35:27;7.20;;;6.50;;
19861;SDS011;10093;48.148;8.542;2022-07-23T08:37:57;8.77;;;6.57;;
19861;SDS011;10093;48.148;8.542;2022-07-23T08:40:25;7.25;;;6.50;;
19861;SDS011;10093;48.148;8.542;2022-07-23T08:42:52;7.45;;;6.68;;
19861;SDS011;10093;48.148;8.542;2022-07-23T08:45:18;9.65;;;7.25;;
19861;SDS011;10093;48.148;8.542;2022-07-23T08:47:47;10.30;;;7.65;;
19861;SDS011;10093;48.148;8.542;2022-07-23T08:50:17;8.55;;;7.40;;
19861;SDS011;10093;48.148;8.542;2022-07-23T08:52:43;7.88;;;7.15;;
19861;SDS011;10093;48.148;8.542;2022-07-23T08:55:09;10.20;;;7.38;;
19861;SDS011;10093;48.148;8.542;2022-07-23T08:57:35;8.65;;;7.03;;
19861;SDS011;10093;48.148;8.542;2022-07-23T09:00:01;11.30;;;7.25;;
19861;SDS011;10093;48.148;8.542;2022-07-23T09:02:27;7.47;;;6.88;;
19861;SDS011;10093;48.148;8.542;2022-07-23T09:04:53;7.35;;;6.75;;
19861;SDS011;10093;48.148;8.542;2022-07-23T09:07:18;9.45;;;7.75;;
19861;SDS011;10093;48.148;8.542;2022-07-23T09:09:44;10.35;;;8.38;;
19861;SDS011;10093;48.148;8.542;2022-07-23T09:12:10;8.20;;;7.07;;
19861;SDS011;10093;48.148;8.542;2022-07-23T09:14:45;8.25;;;7.45;;
19861;SDS011;10093;48.148;8.542;2022-07-23T09:17:14;8.05;;;7.25;;
19861;SDS011;10093;48.148;8.542;2022-07-23T09:19:44;10.40;;;7.50;;
19861;SDS011;10093;48.148;8.542;2022-07-23T09:22:43;9.00;;;7.10;;
19861;SDS011;10093;48.148;8.542;2022-07-23T09:25:06;7.70;;;7.03;;
19861;SDS011;10093;48.148;8.542;2022-07-23T09:30:26;11.38;;;7.15;;
19861;SDS011;10093;48.148;8.542;2022-07-23T09:33:09;7.10;;;6.40;;
19861;SDS011;10093;48.148;8.542;2022-07-23T09:38:14;7.28;;;6.57;;
19861;SDS011;10093;48.148;8.542;2022-07-23T09:40:40;6.85;;;6.00;;
19861;SDS011;10093;48.148;8.542;2022-07-23T09:43:06;6.32;;;5.78;;
19861;SDS011;10093;48.148;8.542;2022-07-23T09:45:32;7.75;;;6.95;;
19861;SDS011;10093;48.148;8.542;2022-07-23T09:48:10;8.27;;;6.60;;
19861;SDS011;10093;48.148;8.542;2022-07-23T09:50:42;7.07;;;6.43;;
19861;SDS011;10093;48.148;8.542;2022-07-23T09:53:08;7.20;;;6.50;;
19861;SDS011;10093;48.148;8.542;2022-07-23T09:55:34;7.90;;;6.60;;
19861;SDS011;10093;48.148;8.542;2022-07-23T09:58:07;7.60;;;6.90;;
19861;SDS011;10093;48.148;8.542;2022-07-23T10:00:39;6.60;;;6.00;;
19861;SDS011;10093;48.148;8.542;2022-07-23T10:03:06;6.70;;;6.20;;
19861;SDS011;10093;48.148;8.542;2022-07-23T10:05:32;6.15;;;5.65;;
19861;SDS011;10093;48.148;8.542;2022-07-23T10:08:01;7.28;;;5.65;;
19861;SDS011;10093;48.148;8.542;2022-07-23T10:10:27;6.50;;;5.90;;
19861;SDS011;10093;48.148;8.542;2022-07-23T10:12:55;5.63;;;5.20;;
19861;SDS011;10093;48.148;8.542;2022-07-23T10:15:40;5.50;;;5.00;;
19861;SDS011;10093;48.148;8.542;2022-07-23T10:18:06;4.80;;;4.32;;
19861;SDS011;10093;48.148;8.542;2022-07-23T10:20:34;4.65;;;4.20;;
19861;SDS011;10093;48.148;8.542;2022-07-23T10:26:16;5.03;;;4.60;;
19861;SDS011;10093;48.148;8.542;2022-07-23T10:29:07;5.57;;;4.70;;
19861;SDS011;10093;48.148;8.542;2022-07-23T10:31:56;6.18;;;5.10;;
19861;SDS011;10093;48.148;8.542;2022-07-23T10:37:16;4.88;;;4.53;;
19861;SDS011;10093;48.148;8.542;2022-07-23T10:40:09;6.03;;;4.57;;
19861;SDS011;10093;48.148;8.542;2022-07-23T10:42:38;5.07;;;4.60;;
19861;SDS011;10093;48.148;8.542;2022-07-23T10:45:50;5.40;;;4.97;;
19861;SDS011;10093;48.148;8.542;2022-07-23T10:50:41;5.75;;;3.97;;
19861;SDS011;10093;48.148;8.542;2022-07-23T10:58:10;4.55;;;4.18;;
19861;SDS011;10093;48.148;8.542;2022-07-23T11:00:36;5.57;;;4.00;;
19861;SDS011;10093;48.148;8.542;2022-07-23T11:05:57;4.88;;;4.53;;
19861;SDS011;10093;48.148;8.542;2022-07-23T11:08:24;5.00;;;4.60;;
19861;SDS011;10093;48.148;8.542;2022-07-23T11:10:51;7.40;;;4.75;;
19861;SDS011;10093;48.148;8.542;2022-07-23T11:13:42;4.80;;;4.07;;
19861;SDS011;10093;48.148;8.542;2022-07-23T11:16:14;5.22;;;4.55;;
19861;SDS011;10093;48.148;8.542;2022-07-23T11:23:58;5.28;;;4.78;;
19861;SDS011;10093;48.148;8.542;2022-07-23T11:29:40;5.35;;;4.95;;
19861;SDS011;10093;48.148;8.542;2022-07-23T11:34:34;5.28;;;4.75;;
19861;SDS011;10093;48.148;8.542;2022-07-23T11:37:03;5.47;;;4.97;;
19861;SDS011;10093;48.148;8.542;2022-07-23T11:39:30;5.70;;;4.65;;
19861;SDS011;10093;48.148;8.542;2022-07-23T11:41:58;5.72;;;5.00;;
19861;SDS011;10093;48.148;8.542;2022-07-23T11:44:34;5.68;;;4.45;;
19861;SDS011;10093;48.148;8.542;2022-07-23T11:47:06;4.88;;;4.47;;
19861;SDS011;10093;48.148;8.542;2022-07-23T11:49:33;5.50;;;5.00;;
19861;SDS011;10093;48.148;8.542;2022-07-23T11:52:10;5.40;;;4.90;;
19861;SDS011;10093;48.148;8.542;2022-07-23T11:54:56;5.03;;;4.60;;
19861;SDS011;10093;48.148;8.542;2022-07-23T11:57:24;6.25;;;5.13;;
19861;SDS011;10093;48.148;8.542;2022-07-23T11:59:58;5.28;;;4.78;;
19861;SDS011;10093;48.148;8.542;2022-07-23T12:02:29;5.35;;;4.82;;
19861;SDS011;10093;48.148;8.542;2022-07-23T12:04:55;5.22;;;4.72;;
19861;SDS011;10093;48.148;8.542;2022-07-23T12:10:03;4.85;;;4.55;;
19861;SDS011;10093;48.148;8.542;2022-07-23T12:12:43;4.40;;;4.10;;
19861;SDS011;10093;48.148;8.542;2022-07-23T12:15:11;5.72;;;4.38;;
19861;SDS011;10093;48.148;8.542;2022-07-23T12:17:39;6.28;;;4.90;;
19861;SDS011;10093;48.148;8.542;2022-07-23T12:20:08;4.72;;;4.32;;
19861;SDS011;10093;48.148;8.542;2022-07-23T12:22:38;5.72;;;4.93;;
19861;SDS011;10093;48.148;8.542;2022-07-23T12:25:13;6.47;;;4.70;;
19861;SDS011;10093;48.148;8.542;2022-07-23T12:27:40;5.07;;;4.57;;
19861;SDS011;10093;48.148;8.542;2022-07-23T12:32:47;5.03;;;4.63;;
19861;SDS011;10093;48.148;8.542;2022-07-23T12:35:13;5.20;;;4.40;;
19861;SDS011;10093;48.148;8.542;2022-07-23T12:37:41;6.40;;;4.65;;
19861;SDS011;10093;48.148;8.542;2022-07-23T12:42:58;5.10;;;4.70;;
19861;SDS011;10093;48.148;8.542;2022-07-23T12:45:45;7.88;;;4.63;;
19861;SDS011;10093;48.148;8.542;2022-07-23T12:50:57;5.22;;;4.80;;
19861;SDS011;10093;48.148;8.542;2022-07-23T12:56:06;4.97;;;4.55;;
19861;SDS011;10093;48.148;8.542;2022-07-23T12:58:44;5.05;;;4.10;;
19861;SDS011;10093;48.148;8.542;2022-07-23T13:04:05;4.68;;;4.28;;
19861;SDS011;10093;48.148;8.542;2022-07-23T13:06:50;4.20;;;3.97;;
19861;SDS011;10093;48.148;8.542;2022-07-23T13:09:19;7.10;;;5.03;;
19861;SDS011;10093;48.148;8.542;2022-07-23T13:11:45;5.03;;;4.63;;
19861;SDS011;10093;48.148;8.542;2022-07-23T13:14:12;7.35;;;4.43;;
19861;SDS011;10093;48.148;8.542;2022-07-23T13:16:38;5.22;;;4.72;;
19861;SDS011;10093;48.148;8.542;2022-07-23T13:19:05;5.30;;;4.75;;
19861;SDS011;10093;48.148;8.542;2022-07-23T13:21:31;5.20;;;4.78;;
19861;SDS011;10093;48.148;8.542;2022-07-23T13:23:57;5.25;;;4.75;;
19861;SDS011;10093;48.148;8.542;2022-07-23T13:26:23;6.38;;;5.15;;
19861;SDS011;10093;48.148;8.542;2022-07-23T13:28:49;5.00;;;4.60;;
19861;SDS011;10093;48.148;8.542;2022-07-23T13:31:15;6.22;;;4.95;;
19861;SDS011;10093;48.148;8.542;2022-07-23T13:33:42;5.32;;;4.90;;
19861;SDS011;10093;48.148;8.542;2022-07-23T13:36:07;5.03;;;4.57;;
19861;SDS011;10093;48.148;8.542;2022-07-23T13:38:33;5.40;;;4.90;;
19861;SDS011;10093;48.148;8.542;2022-07-23T13:40:59;5.80;;;4.97;;
19861;SDS011;10093;48.148;8.542;2022-07-23T13:43:25;5.53;;;5.13;;
19861;SDS011;10093;48.148;8.542;2022-07-23T13:45:51;5.50;;;5.00;;
19861;SDS011;10093;48.148;8.542;2022-07-23T13:48:17;5.07;;;4.57;;
19861;SDS011;10093;48.148;8.542;2022-07-23T13:50:44;5.15;;;4.75;;
19861;SDS011;10093;48.148;8.542;2022-07-23T13:53:15;5.28;;;4.78;;
19861;SDS011;10093;48.148;8.542;2022-07-23T13:55:42;5.25;;;4.60;;
19861;SDS011;10093;48.148;8.542;2022-07-23T13:58:09;6.95;;;4.75;;
19861;SDS011;10093;48.148;8.542;2022-07-23T14:00:36;4.82;;;4.43;;
19861;SDS011;10093;48.148;8.542;2022-07-23T14:03:06;6.85;;;4.78;;
19861;SDS011;10093;48.148;8.542;2022-07-23T14:05:32;4.97;;;4.57;;
19861;SDS011;10093;48.148;8.542;2022-07-23T14:07:58;8.43;;;4.30;;
19861;SDS011;10093;48.148;8.542;2022-07-23T14:10:24;5.68;;;4.57;;
19861;SDS011;10093;48.148;8.542;2022-07-23T14:12:51;5.25;;;4.72;;
19861;SDS011;10093;48.148;8.542;2022-07-23T14:15:21;6.38;;;5.10;;
19861;SDS011;10093;48.148;8.542;2022-07-23T14:17:47;5.82;;;5.22;;
19861;SDS011;10093;48.148;8.542;2022-07-23T14:20:13;6.20;;;5.18;;
19861;SDS011;10093;48.148;8.542;2022-07-23T14:22:39;5.68;;;5.18;;
19861;SDS011;10093;48.148;8.542;2022-07-23T14:25:06;5.50;;;5.00;;
19861;SDS011;10093;48.148;8.542;2022-07-23T14:27:33;4.78;;;4.38;;
19861;SDS011;10093;48.148;8.542;2022-07-23T14:29:59;6.13;;;4.97;;
19861;SDS011;10093;48.148;8.542;2022-07-23T14:32:25;6.13;;;4.93;;
19861;SDS011;10093;48.148;8.542;2022-07-23T14:34:50;5.30;;;4.80;;
19861;SDS011;10093;48.148;8.542;2022-07-23T14:37:17;5.30;;;4.57;;
19861;SDS011;10093;48.148;8.542;2022-07-23T14:39:43;5.47;;;4.18;;
19861;SDS011;10093;48.148;8.542;2022-07-23T14:42:10;4.88;;;4.47;;
19861;SDS011;10093;48.148;8.542;2022-07-23T14:44:36;4.55;;;4.15;;
19861;SDS011;10093;48.148;8.542;2022-07-23T14:47:02;5.57;;;4.60;;
19861;SDS011;10093;48.148;8.542;2022-07-23T14:49:29;5.15;;;4.75;;
19861;SDS011;10093;48.148;8.542;2022-07-23T14:51:55;5.10;;;4.60;;
19861;SDS011;10093;48.148;8.542;2022-07-23T14:54:21;6.20;;;5.55;;
19861;SDS011;10093;48.148;8.542;2022-07-23T14:56:47;6.43;;;5.05;;
19861;SDS011;10093;48.148;8.542;2022-07-23T14:59:13;4.97;;;4.57;;
19861;SDS011;10093;48.148;8.542;2022-07-23T15:01:39;6.78;;;4.32;;
19861;SDS011;10093;48.148;8.542;2022-07-23T15:04:05;5.90;;;4.82;;
19861;SDS011;10093;48.148;8.542;2022-07-23T15:06:32;5.85;;;4.68;;
19861;SDS011;10093;48.148;8.542;2022-07-23T15:08:58;6.32;;;5.38;;
19861;SDS011;10093;48.148;8.542;2022-07-23T15:11:25;4.97;;;4.57;;
19861;SDS011;10093;48.148;8.542;2022-07-23T15:13:57;5.93;;;5.28;;
19861;SDS011;10093;48.148;8.542;2022-07-23T15:16:22;6.25;;;5.00;;
19861;SDS011;10093;48.148;8.542;2022-07-23T15:18:48;5.55;;;5.05;;
19861;SDS011;10093;48.148;8.542;2022-07-23T15:21:14;5.75;;;5.25;;
19861;SDS011;10093;48.148;8.542;2022-07-23T15:23:40;6.47;;;5.13;;
19861;SDS011;10093;48.148;8.542;2022-07-23T15:26:06;5.68;;;4.90;;
19861;SDS011;10093;48.148;8.542;2022-07-23T15:28:32;8.40;;;5.10;;